Time;durP1;ratioP1;P1;durP2;ratioP2;P2;SDS_P1;SDS_P2;PMS_P1;PMS_P2;Temp;Humidity;BMP_temperature;BMP_pressure;BME280_temperature;BME280_humidity;BME280_pressure;Samples;Min_cycle;Max_cycle;Signal;HPM_P1;HPM_P2
2022/09/07 00:01:49;;;;;;;7.28;1.98;;;19.10;65.70;;;;;;5012049;28;20733;-78
2022/09/07 00:04:15;;;;;;;10.07;2.90;;;19.00;65.50;;;;;;5023706;28;20079;-78
2022/09/07 00:06:43;;;;;;;9.38;2.67;;;19.10;65.70;;;;;;5022958;28;20037;-78
2022/09/07 00:09:09;;;;;;;6.75;1.52;;;19.10;65.80;;;;;;5016580;28;20130;-78
2022/09/07 00:11:35;;;;;;;5.03;2.38;;;19.10;65.80;;;;;;5037121;28;20041;-78
2022/09/07 00:14:00;;;;;;;9.75;3.40;;;19.10;65.80;;;;;;5023658;28;20362;-79
2022/09/07 00:16:29;;;;;;;6.70;2.00;;;19.10;65.80;;;;;;5006473;28;20037;-77
2022/09/07 00:18:57;;;;;;;5.97;2.42;;;19.10;65.90;;;;;;5023100;28;20036;-78
2022/09/07 00:21:24;;;;;;;6.63;1.92;;;19.10;65.90;;;;;;5033915;28;20036;-78
2022/09/07 00:23:51;;;;;;;6.00;2.50;;;19.10;65.90;;;;;;5021020;28;20059;-78
2022/09/07 00:26:20;;;;;;;6.55;1.77;;;19.10;65.90;;;;;;5024905;28;20025;-77
2022/09/07 00:28:47;;;;;;;5.93;1.92;;;19.10;66.00;;;;;;5021621;28;20094;-79
2022/09/07 00:31:21;;;;;;;6.28;2.00;;;19.10;66.00;;;;;;5030458;28;20025;-80
2022/09/07 00:33:49;;;;;;;9.00;2.53;;;19.10;66.10;;;;;;5023861;28;20052;-79
2022/09/07 00:36:16;;;;;;;9.30;3.30;;;19.10;66.10;;;;;;5021211;28;20029;-79
2022/09/07 00:38:42;;;;;;;8.85;2.17;;;19.10;66.10;;;;;;5039636;28;20441;-79
2022/09/07 00:41:08;;;;;;;8.82;2.47;;;19.00;65.90;;;;;;5045629;28;20033;-79
2022/09/07 00:43:41;;;;;;;6.00;1.83;;;19.00;66.00;;;;;;5037249;28;20388;-79
2022/09/07 00:46:25;;;;;;;8.50;2.03;;;19.00;66.10;;;;;;5046085;28;20028;-80
2022/09/07 00:49:06;;;;;;;7.72;2.15;;;19.00;66.10;;;;;;5031956;28;20038;-79
2022/09/07 00:51:44;;;;;;;11.65;3.33;;;19.00;66.10;;;;;;5022855;28;20040;-78
2022/09/07 00:54:16;;;;;;;6.88;2.20;;;19.00;66.20;;;;;;5023879;28;20037;-80
2022/09/07 00:56:45;;;;;;;5.07;1.60;;;19.00;66.20;;;;;;5025373;28;20087;-79
2022/09/07 00:59:14;;;;;;;9.57;3.17;;;19.10;66.30;;;;;;5018246;28;20084;-79
2022/09/07 01:01:40;;;;;;;8.02;2.40;;;19.00;66.20;;;;;;5023371;28;20033;-78
2022/09/07 01:04:07;;;;;;;8.07;2.08;;;19.00;66.30;;;;;;5033434;28;20044;-79
2022/09/07 01:06:35;;;;;;;6.65;2.25;;;19.10;66.50;;;;;;5022475;28;20064;-81
2022/09/07 01:09:14;;;;;;;7.78;2.65;;;19.00;66.30;;;;;;5023444;28;20071;-79
2022/09/07 01:11:43;;;;;;;8.30;2.13;;;19.10;66.70;;;;;;5016027;28;20033;-79
2022/09/07 01:14:12;;;;;;;14.63;3.65;;;19.10;66.60;;;;;;5023118;28;20064;-79
2022/09/07 01:16:56;;;;;;;6.63;1.90;;;19.10;66.60;;;;;;5011018;28;20219;-79
2022/09/07 01:19:25;;;;;;;7.47;2.13;;;19.00;67.10;;;;;;5021401;28;20488;-78
2022/09/07 01:22:06;;;;;;;8.10;2.60;;;19.10;66.60;;;;;;5034321;28;20405;-79
2022/09/07 01:24:56;;;;;;;8.13;2.47;;;19.10;66.80;;;;;;5025654;28;20040;-79
2022/09/07 01:27:51;;;;;;;10.73;2.53;;;19.10;66.90;;;;;;5021847;28;20034;-80
2022/09/07 01:30:19;;;;;;;8.73;2.05;;;19.10;66.80;;;;;;5034183;28;20381;-78
2022/09/07 01:33:09;;;;;;;5.47;2.10;;;19.10;66.80;;;;;;5027427;28;20029;-79
2022/09/07 01:35:53;;;;;;;10.15;2.58;;;19.00;66.80;;;;;;5009537;28;20157;-78
2022/09/07 01:38:34;;;;;;;7.63;1.88;;;19.00;66.80;;;;;;5029147;28;20036;-78
2022/09/07 01:41:28;;;;;;;5.95;2.20;;;19.00;66.90;;;;;;5032583;28;20033;-78
2022/09/07 01:44:11;;;;;;;8.27;2.78;;;19.00;66.90;;;;;;5008371;28;20183;-79
2022/09/07 01:47:00;;;;;;;8.20;2.15;;;19.00;66.90;;;;;;5028924;28;20408;-78
2022/09/07 01:49:50;;;;;;;6.47;2.15;;;19.00;67.00;;;;;;5019744;28;20487;-78
2022/09/07 01:52:26;;;;;;;9.82;1.98;;;19.00;67.00;;;;;;5049977;28;20055;-79
2022/09/07 01:54:59;;;;;;;9.00;2.42;;;19.00;67.00;;;;;;5051170;28;20087;-78
2022/09/07 01:57:32;;;;;;;9.23;3.70;;;19.00;67.10;;;;;;5049027;28;20087;-79
2022/09/07 02:00:08;;;;;;;8.07;3.08;;;19.00;67.20;;;;;;5028124;28;20032;-78
2022/09/07 02:03:08;;;;;;;7.03;2.20;;;18.90;67.10;;;;;;5041268;28;20043;-79
2022/09/07 02:05:51;;;;;;;6.28;2.40;;;19.00;67.30;;;;;;5029627;28;20036;-80
2022/09/07 02:08:21;;;;;;;7.88;1.83;;;19.00;67.40;;;;;;5022799;28;20071;-80
2022/09/07 02:11:17;;;;;;;7.85;2.10;;;19.00;67.30;;;;;;5025534;28;20082;-79
2022/09/07 02:13:53;;;;;;;8.98;2.33;;;19.00;68.00;;;;;;5021717;28;20045;-80
2022/09/07 02:16:28;;;;;;;8.98;2.13;;;19.00;67.40;;;;;;5034720;28;20040;-80
2022/09/07 02:18:59;;;;;;;6.50;2.45;;;19.00;67.40;;;;;;5045120;28;20400;-80
2022/09/07 02:21:38;;;;;;;5.45;1.95;;;19.00;67.40;;;;;;5038834;28;20032;-79
2022/09/07 02:24:19;;;;;;;6.40;1.98;;;19.10;67.70;;;;;;5045300;28;20029;-79
2022/09/07 02:26:48;;;;;;;5.53;1.67;;;19.00;67.50;;;;;;5043607;28;20072;-79
2022/09/07 02:29:14;;;;;;;7.40;1.90;;;19.00;67.50;;;;;;5044750;28;20287;-78
2022/09/07 02:31:40;;;;;;;6.47;2.35;;;19.00;67.60;;;;;;5038446;28;20483;-78
2022/09/07 02:34:06;;;;;;;7.32;2.47;;;19.00;67.60;;;;;;5040022;28;20038;-79
2022/09/07 02:36:43;;;;;;;5.93;1.95;;;19.00;67.70;;;;;;5045886;28;20032;-78
2022/09/07 02:39:09;;;;;;;5.30;1.80;;;19.00;67.80;;;;;;5048570;28;20070;-78
2022/09/07 02:41:41;;;;;;;10.52;2.53;;;18.90;67.60;;;;;;5050421;28;20478;-79
2022/09/07 02:44:15;;;;;;;11.98;2.70;;;18.90;67.80;;;;;;5035421;28;20479;-80
2022/09/07 02:46:50;;;;;;;9.75;2.22;;;18.90;67.80;;;;;;5047175;28;20059;-79
2022/09/07 02:49:48;;;;;;;8.73;1.77;;;18.80;67.70;;;;;;5041355;28;20041;-80
2022/09/07 02:52:43;;;;;;;10.43;2.28;;;18.80;67.80;;;;;;5048884;28;20052;-79
2022/09/07 02:55:35;;;;;;;6.25;2.00;;;18.80;67.80;;;;;;5031808;28;20044;-79
2022/09/07 02:58:36;;;;;;;11.35;2.75;;;18.80;67.90;;;;;;5029520;28;20041;-79
2022/09/07 03:01:30;;;;;;;6.90;1.92;;;18.80;68.00;;;;;;5040059;28;20399;-80
2022/09/07 03:04:10;;;;;;;8.25;2.60;;;18.70;67.80;;;;;;5048658;28;20025;-79
2022/09/07 03:06:40;;;;;;;11.35;3.13;;;18.70;67.80;;;;;;5048332;28;20082;-80
2022/09/07 03:09:13;;;;;;;8.30;2.65;;;18.70;67.90;;;;;;5002240;28;20430;-79
2022/09/07 03:11:39;;;;;;;8.65;2.05;;;18.70;68.00;;;;;;5022967;28;20029;-79
2022/09/07 03:14:11;;;;;;;6.85;2.13;;;18.70;68.00;;;;;;5020233;28;20048;-80
2022/09/07 03:16:37;;;;;;;8.02;1.77;;;18.70;68.10;;;;;;5035353;28;20041;-80
2022/09/07 03:19:04;;;;;;;7.13;2.30;;;18.70;68.10;;;;;;5048045;28;20547;-80
2022/09/07 03:21:30;;;;;;;9.43;2.00;;;18.70;68.20;;;;;;5049436;28;20025;-80
2022/09/07 03:23:56;;;;;;;6.93;2.03;;;18.60;68.10;;;;;;5047475;28;20017;-80
2022/09/07 03:26:24;;;;;;;9.60;2.38;;;18.60;68.20;;;;;;5049594;28;20033;-81
2022/09/07 03:28:50;;;;;;;7.38;2.97;;;18.60;68.20;;;;;;5048544;28;20036;-80
2022/09/07 03:31:16;;;;;;;9.88;2.33;;;18.60;68.30;;;;;;5024595;28;20026;-80
2022/09/07 03:33:42;;;;;;;8.52;1.90;;;18.60;68.30;;;;;;5036397;28;20052;-79
2022/09/07 03:36:08;;;;;;;6.40;1.85;;;18.60;68.40;;;;;;5040292;28;20064;-79
2022/09/07 03:38:34;;;;;;;8.90;2.33;;;18.60;68.40;;;;;;5037020;28;20043;-80
2022/09/07 03:41:01;;;;;;;7.97;1.85;;;18.60;68.40;;;;;;5049438;28;20025;-80
2022/09/07 03:43:28;;;;;;;11.07;2.30;;;18.60;68.40;;;;;;5038041;28;20609;-80
2022/09/07 03:46:03;;;;;;;7.57;1.92;;;18.60;69.00;;;;;;5048612;28;20075;-80
2022/09/07 03:48:33;;;;;;;11.73;1.85;;;18.50;68.30;;;;;;5044153;28;20417;-79
2022/09/07 03:51:02;;;;;;;7.07;1.92;;;18.60;68.50;;;;;;5035207;28;20033;-80
2022/09/07 03:53:31;;;;;;;8.38;2.40;;;18.50;68.30;;;;;;5047422;28;20033;-80
2022/09/07 03:56:03;;;;;;;8.68;2.40;;;18.50;68.30;;;;;;5040667;28;20055;-80
2022/09/07 03:58:30;;;;;;;9.30;2.13;;;18.50;68.30;;;;;;5047463;28;20024;-80
2022/09/07 04:00:57;;;;;;;9.43;2.33;;;18.50;68.30;;;;;;5029389;28;20279;-79
2022/09/07 04:03:23;;;;;;;6.13;1.90;;;18.50;68.30;;;;;;5027124;28;20495;-79
2022/09/07 04:05:49;;;;;;;8.85;2.22;;;18.50;68.40;;;;;;5049571;28;20025;-79
2022/09/07 04:08:15;;;;;;;4.70;2.05;;;18.50;68.40;;;;;;5051740;28;20088;-79
2022/09/07 04:10:41;;;;;;;10.50;2.35;;;18.50;68.40;;;;;;5034347;28;20053;-79
2022/09/07 04:13:07;;;;;;;8.57;2.20;;;18.50;68.50;;;;;;5041067;28;20029;-79
2022/09/07 04:15:34;;;;;;;8.93;2.05;;;18.40;68.30;;;;;;5034950;28;20037;-79
2022/09/07 04:18:00;;;;;;;8.48;2.90;;;18.40;68.40;;;;;;5044490;28;20041;-78
2022/09/07 04:20:27;;;;;;;6.78;2.05;;;18.40;68.50;;;;;;5047380;28;20037;-79
2022/09/07 04:22:53;;;;;;;10.05;2.85;;;18.30;68.30;;;;;;5047134;28;20029;-79
2022/09/07 04:25:19;;;;;;;7.55;1.88;;;18.30;68.40;;;;;;5046101;28;20048;-79
2022/09/07 04:27:44;;;;;;;9.40;3.60;;;18.30;68.50;;;;;;5047843;28;20067;-79
2022/09/07 04:30:12;;;;;;;12.70;2.50;;;18.30;68.60;;;;;;5047941;28;20024;-79
2022/09/07 04:32:38;;;;;;;8.57;2.10;;;18.30;68.60;;;;;;5042040;28;20040;-79
2022/09/07 04:35:04;;;;;;;6.43;2.28;;;18.30;68.70;;;;;;5021997;28;20427;-78
2022/09/07 04:37:30;;;;;;;7.82;2.00;;;18.20;68.50;;;;;;5043999;28;20044;-79
2022/09/07 04:39:56;;;;;;;8.07;2.03;;;18.20;68.60;;;;;;5046949;28;20029;-78
2022/09/07 04:42:22;;;;;;;10.48;2.53;;;18.20;68.60;;;;;;5023579;28;20032;-79
2022/09/07 04:44:48;;;;;;;6.93;1.80;;;18.20;68.70;;;;;;5041135;28;20059;-78
2022/09/07 04:47:14;;;;;;;8.07;2.50;;;18.20;68.70;;;;;;5041807;28;20464;-79
2022/09/07 04:49:40;;;;;;;7.32;3.00;;;18.10;68.60;;;;;;5036205;28;20047;-79
2022/09/07 04:52:06;;;;;;;12.30;3.83;;;18.10;68.60;;;;;;5041279;28;20024;-78
2022/09/07 04:54:32;;;;;;;8.77;2.28;;;18.10;68.60;;;;;;5040751;28;20036;-79
2022/09/07 04:56:58;;;;;;;7.85;2.10;;;18.10;68.60;;;;;;5037462;28;20041;-80
2022/09/07 04:59:24;;;;;;;6.10;1.65;;;18.10;68.60;;;;;;5041232;28;20083;-79
2022/09/07 05:01:50;;;;;;;8.65;2.65;;;18.10;68.60;;;;;;5030082;28;20032;-79
2022/09/07 05:04:16;;;;;;;8.57;2.65;;;18.10;68.70;;;;;;5040290;28;20029;-80
2022/09/07 05:06:42;;;;;;;8.23;2.83;;;18.10;68.70;;;;;;5029318;28;20037;-80
2022/09/07 05:09:09;;;;;;;8.43;2.17;;;18.10;68.80;;;;;;5048726;28;20140;-80
2022/09/07 05:11:35;;;;;;;7.57;2.33;;;18.10;68.80;;;;;;5034328;28;20294;-78
2022/09/07 05:14:02;;;;;;;9.23;1.90;;;18.10;68.80;;;;;;5041750;28;20026;-78
2022/09/07 05:16:29;;;;;;;8.15;2.08;;;18.10;68.80;;;;;;5026349;28;20026;-79
2022/09/07 05:18:58;;;;;;;6.28;1.98;;;18.10;68.90;;;;;;5019710;28;20296;-80
2022/09/07 05:21:26;;;;;;;10.73;1.77;;;18.00;68.70;;;;;;5023434;28;20032;-80
2022/09/07 05:23:54;;;;;;;6.13;1.83;;;18.00;68.80;;;;;;5025683;28;20033;-80
2022/09/07 05:26:22;;;;;;;8.55;2.20;;;18.10;69.00;;;;;;5006276;28;20139;-79
2022/09/07 05:28:48;;;;;;;7.50;1.77;;;18.00;68.90;;;;;;5004479;28;20057;-79
2022/09/07 05:31:17;;;;;;;9.05;2.50;;;18.00;68.90;;;;;;5023953;28;20435;-80
2022/09/07 05:33:51;;;;;;;8.32;2.00;;;18.00;69.00;;;;;;5017023;28;20046;-81
2022/09/07 05:36:17;;;;;;;9.02;2.78;;;18.00;69.00;;;;;;5028251;28;20030;-81
2022/09/07 05:38:43;;;;;;;9.13;2.00;;;18.00;69.00;;;;;;5063569;28;20025;-79
2022/09/07 05:41:14;;;;;;;9.45;1.95;;;17.90;68.90;;;;;;5025281;28;20025;-78
2022/09/07 05:43:40;;;;;;;8.05;1.85;;;17.90;69.00;;;;;;5025315;28;20370;-80
2022/09/07 05:46:07;;;;;;;9.70;2.67;;;17.90;69.10;;;;;;5026442;28;20215;-80
2022/09/07 05:48:33;;;;;;;15.13;3.63;;;17.90;69.30;;;;;;5019281;28;20037;-79
2022/09/07 05:50:59;;;;;;;9.32;2.22;;;17.90;69.70;;;;;;5042122;28;20043;-80
2022/09/07 05:53:25;;;;;;;13.35;3.70;;;17.80;69.90;;;;;;5029870;28;20447;-83
2022/09/07 05:55:51;;;;;;;18.45;3.47;;;17.80;70.30;;;;;;5035209;28;20121;-81
2022/09/07 05:58:17;;;;;;;11.57;3.08;;;17.80;70.60;;;;;;5045209;28;20029;-82
2022/09/07 06:00:46;;;;;;;15.15;3.65;;;17.80;70.70;;;;;;5033955;28;20028;-81
2022/09/07 06:03:13;;;;;;;10.30;3.13;;;17.80;70.80;;;;;;5023593;28;20294;-82
2022/09/07 06:05:39;;;;;;;11.45;3.20;;;17.80;70.80;;;;;;5018974;28;20031;-81
2022/09/07 06:08:05;;;;;;;13.80;4.07;;;17.80;70.90;;;;;;5038611;28;20520;-82
2022/09/07 06:10:35;;;;;;;8.57;2.30;;;17.80;70.90;;;;;;5030198;28;20037;-84
2022/09/07 06:13:02;;;;;;;12.48;3.42;;;17.70;70.80;;;;;;5037976;28;20033;-82
2022/09/07 06:15:30;;;;;;;13.27;2.88;;;17.70;70.80;;;;;;5034242;28;20028;-84
2022/09/07 06:17:56;;;;;;;12.93;2.80;;;17.80;71.10;;;;;;5025851;28;20029;-83
2022/09/07 06:20:21;;;;;;;18.98;4.45;;;17.70;71.10;;;;;;5042658;28;20473;-84
2022/09/07 06:22:47;;;;;;;11.27;2.75;;;17.80;71.30;;;;;;5041508;28;20491;-85
2022/09/07 06:25:13;;;;;;;9.93;3.15;;;17.80;71.30;;;;;;5044432;28;20040;-84
2022/09/07 06:27:39;;;;;;;12.75;2.75;;;17.90;71.40;;;;;;5035758;28;20039;-83
2022/09/07 06:30:06;;;;;;;10.43;3.17;;;18.00;71.50;;;;;;5040769;28;20037;-84
2022/09/07 06:32:36;;;;;;;13.63;3.15;;;18.00;71.40;;;;;;5006763;28;20440;-84
2022/09/07 06:35:02;;;;;;;9.05;3.38;;;18.10;71.40;;;;;;5041525;28;20030;-80
2022/09/07 06:37:28;;;;;;;14.70;2.95;;;18.20;71.40;;;;;;5014079;28;20038;-80
2022/09/07 06:39:54;;;;;;;13.18;3.30;;;18.30;71.30;;;;;;5043987;28;20365;-80
2022/09/07 06:42:20;;;;;;;11.98;2.72;;;18.50;71.30;;;;;;5011534;28;20045;-80
2022/09/07 06:44:51;;;;;;;15.73;4.07;;;18.70;71.20;;;;;;5021585;28;20080;-80
2022/09/07 06:47:17;;;;;;;13.23;2.83;;;19.00;71.30;;;;;;5023703;28;20042;-80
2022/09/07 06:49:43;;;;;;;8.38;2.60;;;19.20;71.00;;;;;;5024414;28;20696;-80
2022/09/07 06:52:09;;;;;;;11.77;3.78;;;19.40;70.60;;;;;;5015297;28;20041;-80
2022/09/07 06:54:34;;;;;;;6.07;1.90;;;19.70;70.70;;;;;;5022981;28;20124;-80
2022/09/07 06:57:07;;;;;;;8.52;2.35;;;19.80;70.40;;;;;;5023973;28;20036;-81
2022/09/07 06:59:34;;;;;;;9.70;2.40;;;19.90;70.10;;;;;;5007444;28;20029;-80
2022/09/07 07:01:59;;;;;;;10.98;2.22;;;20.00;70.00;;;;;;5030293;28;20029;-83
2022/09/07 07:04:25;;;;;;;4.88;1.83;;;20.10;69.90;;;;;;5024812;28;20034;-84
2022/09/07 07:06:51;;;;;;;6.20;2.13;;;20.20;70.00;;;;;;5007115;28;20033;-84
2022/09/07 07:09:17;;;;;;;7.45;2.15;;;20.20;69.90;;;;;;5037183;28;20045;-82
2022/09/07 07:11:46;;;;;;;10.20;2.33;;;20.20;69.80;;;;;;5032304;28;20032;-82
2022/09/07 07:14:16;;;;;;;7.63;2.13;;;20.20;69.70;;;;;;5032269;28;20049;-83
2022/09/07 07:16:43;;;;;;;6.63;2.17;;;20.30;69.80;;;;;;5025214;28;20033;-82
2022/09/07 07:19:09;;;;;;;6.20;2.15;;;20.30;69.70;;;;;;5023096;28;20396;-83
2022/09/07 07:21:35;;;;;;;8.80;2.38;;;20.30;69.60;;;;;;5021918;28;20029;-82
2022/09/07 07:24:01;;;;;;;8.57;2.38;;;20.40;69.60;;;;;;5054451;28;20486;-82
2022/09/07 07:26:27;;;;;;;7.78;2.22;;;20.40;69.50;;;;;;5017745;28;20471;-83
2022/09/07 07:28:55;;;;;;;7.80;2.30;;;20.50;69.50;;;;;;5028911;28;20046;-83
2022/09/07 07:31:23;;;;;;;8.02;1.90;;;20.50;69.40;;;;;;5016340;28;20040;-82
2022/09/07 07:33:51;;;;;;;5.47;1.98;;;20.60;69.40;;;;;;5011349;28;20032;-84
2022/09/07 07:36:23;;;;;;;8.57;2.13;;;20.70;69.40;;;;;;5007351;28;20033;-82
2022/09/07 07:38:51;;;;;;;9.20;2.88;;;20.70;69.20;;;;;;5029371;28;20482;-79
2022/09/07 07:41:19;;;;;;;8.15;2.05;;;20.80;69.10;;;;;;5021930;28;20029;-80
2022/09/07 07:43:47;;;;;;;7.25;2.10;;;20.90;69.00;;;;;;5021616;28;20042;-80
2022/09/07 07:46:16;;;;;;;9.13;2.92;;;21.10;69.10;;;;;;5023549;28;20048;-87
2022/09/07 07:48:46;;;;;;;8.30;2.47;;;21.20;69.00;;;;;;5024192;28;20042;-84
2022/09/07 07:51:11;;;;;;;8.43;2.17;;;21.30;68.80;;;;;;5011992;28;20026;-83
2022/09/07 07:53:39;;;;;;;9.82;2.83;;;21.40;68.90;;;;;;5008217;28;20038;-82
2022/09/07 07:56:06;;;;;;;7.38;2.50;;;21.40;68.60;;;;;;5024982;28;20432;-83
2022/09/07 07:58:34;;;;;;;7.22;2.22;;;21.60;68.70;;;;;;5024403;28;20030;-80
2022/09/07 08:01:05;;;;;;;7.20;2.30;;;21.70;68.60;;;;;;5013349;28;20263;-83
2022/09/07 08:03:34;;;;;;;8.43;2.72;;;21.80;68.50;;;;;;5024087;28;20528;-84
2022/09/07 08:06:08;;;;;;;6.15;1.85;;;21.90;68.30;;;;;;5025008;28;20416;-84
2022/09/07 08:08:35;;;;;;;5.55;1.65;;;22.00;68.20;;;;;;5024463;28;20049;-84
2022/09/07 08:11:06;;;;;;;6.45;2.05;;;22.10;68.20;;;;;;5027386;28;20033;-84
2022/09/07 08:13:36;;;;;;;6.50;2.17;;;22.10;68.00;;;;;;5021344;28;20033;-80
2022/09/07 08:16:02;;;;;;;7.40;2.30;;;22.20;68.10;;;;;;5024850;28;20043;-80
2022/09/07 08:18:28;;;;;;;6.75;2.53;;;22.20;67.90;;;;;;5028433;28;20234;-80
2022/09/07 08:21:02;;;;;;;8.25;2.08;;;22.20;67.80;;;;;;5029949;28;20025;-83
2022/09/07 08:23:30;;;;;;;9.80;3.13;;;22.20;67.60;;;;;;5043680;28;20040;-82
2022/09/07 08:25:57;;;;;;;10.90;3.25;;;22.20;67.50;;;;;;5041743;28;20052;-82
2022/09/07 08:28:30;;;;;;;8.05;2.45;;;22.20;67.50;;;;;;5042975;28;20039;-82
2022/09/07 08:30:56;;;;;;;6.90;1.73;;;22.20;67.40;;;;;;5034357;28;20531;-82
2022/09/07 08:33:23;;;;;;;8.07;2.03;;;22.20;67.40;;;;;;5029154;28;20024;-82
2022/09/07 08:35:58;;;;;;;6.15;1.52;;;22.30;67.50;;;;;;5014519;28;20033;-83
2022/09/07 08:38:24;;;;;;;7.20;2.08;;;22.30;67.30;;;;;;5024271;28;20029;-81
2022/09/07 08:40:50;;;;;;;7.10;2.30;;;22.40;67.20;;;;;;5043928;28;20475;-83
2022/09/07 08:43:43;;;;;;;6.78;1.95;;;22.60;67.20;;;;;;5039466;28;20021;-83
2022/09/07 08:46:35;;;;;;;5.95;1.90;;;22.60;67.00;;;;;;5043335;28;20032;-84
2022/09/07 08:49:04;;;;;;;7.45;2.20;;;22.60;66.80;;;;;;5009032;28;20460;-84
2022/09/07 08:51:40;;;;;;;7.97;1.77;;;22.60;66.90;;;;;;5005600;28;20034;-81
2022/09/07 08:54:11;;;;;;;6.20;2.22;;;22.60;66.90;;;;;;5024372;28;20032;-80
2022/09/07 08:56:44;;;;;;;8.30;2.15;;;22.70;67.00;;;;;;5026109;28;20283;-81
2022/09/07 08:59:41;;;;;;;6.25;2.78;;;22.80;66.90;;;;;;5043444;28;20555;-83
2022/09/07 09:02:13;;;;;;;6.95;2.35;;;22.80;66.70;;;;;;5012075;28;20292;-84
2022/09/07 09:04:41;;;;;;;5.22;1.95;;;22.80;66.70;;;;;;5068717;28;20037;-82
2022/09/07 09:07:14;;;;;;;8.25;2.05;;;22.90;66.70;;;;;;5042574;28;20029;-86
2022/09/07 09:09:58;;;;;;;6.30;2.17;;;23.00;66.80;;;;;;5038476;28;20043;-83
2022/09/07 09:12:51;;;;;;;11.00;2.45;;;23.00;66.70;;;;;;5005598;28;20037;-80
2022/09/07 09:15:38;;;;;;;6.20;2.10;;;23.00;66.50;;;;;;5024762;28;20352;-81
2022/09/07 09:18:26;;;;;;;8.15;1.70;;;23.10;66.60;;;;;;5041962;28;20033;-81
2022/09/07 09:20:55;;;;;;;5.97;2.10;;;23.10;66.40;;;;;;5026474;28;20488;-80
2022/09/07 09:23:27;;;;;;;7.45;2.20;;;23.20;66.50;;;;;;5033055;28;20500;-80
2022/09/07 09:25:57;;;;;;;6.68;1.63;;;23.20;66.50;;;;;;5044901;28;20422;-81
2022/09/07 09:28:24;;;;;;;7.78;2.38;;;23.20;66.40;;;;;;5044143;28;20025;-80
2022/09/07 09:30:50;;;;;;;6.63;1.95;;;23.20;66.30;;;;;;5027720;28;20029;-81
2022/09/07 09:33:27;;;;;;;4.40;1.80;;;23.30;66.40;;;;;;5008040;28;20033;-81
2022/09/07 09:35:56;;;;;;;7.57;2.13;;;23.40;66.30;;;;;;5041545;28;20031;-80
2022/09/07 09:38:38;;;;;;;12.63;2.40;;;23.50;66.20;;;;;;5033005;28;20221;-81
2022/09/07 09:41:10;;;;;;;4.72;1.98;;;23.70;66.20;;;;;;5043482;28;20033;-80
2022/09/07 09:43:54;;;;;;;8.63;1.85;;;23.70;66.00;;;;;;5038928;28;20033;-81
2022/09/07 09:46:30;;;;;;;6.50;2.28;;;23.80;65.90;;;;;;5039047;28;20438;-82
2022/09/07 09:49:02;;;;;;;7.20;1.85;;;23.90;65.90;;;;;;5037000;28;20036;-83
2022/09/07 09:51:31;;;;;;;5.85;1.73;;;23.90;65.80;;;;;;5036916;28;20025;-80
2022/09/07 09:54:06;;;;;;;6.00;1.75;;;23.80;65.60;;;;;;5036755;28;20531;-81
2022/09/07 09:56:44;;;;;;;6.72;2.05;;;23.80;65.70;;;;;;5039705;28;20492;-80
2022/09/07 09:59:17;;;;;;;7.50;1.70;;;23.80;65.80;;;;;;5040275;28;20439;-80
2022/09/07 10:01:45;;;;;;;6.15;1.52;;;23.70;65.80;;;;;;5030613;28;20567;-80
2022/09/07 10:04:24;;;;;;;9.82;2.58;;;23.70;65.90;;;;;;5048537;28;20541;-80
2022/09/07 10:06:51;;;;;;;9.50;2.03;;;23.70;65.90;;;;;;5042514;28;20178;-80
2022/09/07 10:09:20;;;;;;;5.13;1.75;;;23.70;65.90;;;;;;5053965;28;20438;-84
2022/09/07 10:11:51;;;;;;;5.28;1.67;;;23.90;66.00;;;;;;5046152;28;20127;-84
2022/09/07 10:14:25;;;;;;;5.05;1.67;;;24.10;66.00;;;;;;5031827;28;20071;-84
2022/09/07 10:16:51;;;;;;;7.78;2.38;;;24.30;65.80;;;;;;5047194;28;20033;-85
2022/09/07 10:19:35;;;;;;;5.72;1.67;;;24.50;65.70;;;;;;5027844;28;20032;-84
2022/09/07 10:22:17;;;;;;;7.30;2.47;;;24.60;65.50;;;;;;5046284;28;20040;-82
2022/09/07 10:24:43;;;;;;;5.38;1.60;;;24.60;65.30;;;;;;5037726;28;20090;-87
2022/09/07 10:27:27;;;;;;;7.25;1.77;;;24.60;65.30;;;;;;5034417;28;20029;-82
2022/09/07 10:29:54;;;;;;;6.70;2.22;;;24.70;65.20;;;;;;5028871;28;20041;-82
2022/09/07 10:32:38;;;;;;;6.93;1.48;;;24.80;65.30;;;;;;5024397;28;20025;-81
2022/09/07 10:35:16;;;;;;;5.20;1.98;;;24.90;65.30;;;;;;5023114;28;20018;-80
2022/09/07 10:37:58;;;;;;;8.35;2.03;;;25.00;65.20;;;;;;5025400;28;20029;-79
2022/09/07 10:40:24;;;;;;;7.18;2.63;;;25.20;64.90;;;;;;5031106;28;20066;-83
2022/09/07 10:43:11;;;;;;;5.85;1.75;;;25.30;64.60;;;;;;5036883;28;20026;-84
2022/09/07 10:45:37;;;;;;;4.72;1.55;;;25.50;64.20;;;;;;5031278;28;20373;-84
2022/09/07 10:48:09;;;;;;;7.28;2.22;;;25.50;64.10;;;;;;5046053;28;20040;-83
2022/09/07 10:50:56;;;;;;;4.80;1.50;;;25.60;64.00;;;;;;5033244;28;20090;-82
2022/09/07 10:53:46;;;;;;;8.90;2.17;;;25.70;63.80;;;;;;5042934;28;20258;-80
2022/09/07 10:56:21;;;;;;;4.07;1.30;;;25.80;63.50;;;;;;5040046;28;20030;-80
2022/09/07 10:58:53;;;;;;;3.15;1.50;;;25.90;63.40;;;;;;5022831;28;20025;-80
2022/09/07 11:01:25;;;;;;;6.20;2.17;;;26.00;63.40;;;;;;5045760;28;20020;-83
2022/09/07 11:04:09;;;;;;;3.83;1.58;;;26.00;63.10;;;;;;5044590;28;20024;-84
2022/09/07 11:06:48;;;;;;;7.15;1.80;;;26.20;63.00;;;;;;5045780;28;20507;-84
2022/09/07 11:09:43;;;;;;;5.47;1.92;;;26.30;62.70;;;;;;5045684;28;20345;-84
2022/09/07 11:12:17;;;;;;;8.27;2.00;;;26.40;62.40;;;;;;5029516;28;20052;-84
2022/09/07 11:14:55;;;;;;;7.97;1.98;;;26.50;62.20;;;;;;5040888;28;20105;-83
2022/09/07 11:17:25;;;;;;;4.15;1.58;;;26.60;61.90;;;;;;5033508;28;20029;-83
2022/09/07 11:20:24;;;;;;;6.13;2.00;;;26.80;61.90;;;;;;5037965;28;20029;-81
2022/09/07 11:23:01;;;;;;;4.70;1.58;;;26.90;61.50;;;;;;5053280;28;20035;-81
2022/09/07 11:25:41;;;;;;;5.72;2.17;;;27.10;61.30;;;;;;5047134;28;20032;-81
2022/09/07 11:28:19;;;;;;;5.65;1.90;;;27.30;60.90;;;;;;5025380;28;20045;-87
2022/09/07 11:30:52;;;;;;;4.78;1.52;;;27.30;60.80;;;;;;5030566;28;20241;-81
2022/09/07 11:33:33;;;;;;;9.18;2.03;;;27.40;60.80;;;;;;5058766;28;20642;-81
2022/09/07 11:36:14;;;;;;;7.25;1.52;;;27.40;60.60;;;;;;5045852;28;20037;-81
2022/09/07 11:39:00;;;;;;;6.88;1.85;;;27.50;60.40;;;;;;5041933;28;20021;-82
2022/09/07 11:41:28;;;;;;;5.82;1.70;;;27.60;59.90;;;;;;5031412;28;20425;-80
2022/09/07 11:44:23;;;;;;;7.78;2.03;;;27.80;59.80;;;;;;5043027;28;20013;-80
2022/09/07 11:47:24;;;;;;;2.80;1.05;;;27.90;59.20;;;;;;5016703;28;20037;-81
2022/09/07 11:49:54;;;;;;;6.50;1.70;;;28.00;59.10;;;;;;5009809;28;20428;-83
2022/09/07 11:52:33;;;;;;;4.80;1.42;;;28.10;59.00;;;;;;5008120;28;20416;-83
2022/09/07 11:55:04;;;;;;;5.28;1.80;;;28.30;58.70;;;;;;5021871;28;20451;-85
2022/09/07 11:57:51;;;;;;;4.00;1.60;;;28.40;58.60;;;;;;5015122;28;20098;-84
2022/09/07 12:00:20;;;;;;;4.60;1.20;;;28.50;58.00;;;;;;5031210;28;20303;-85
2022/09/07 12:03:05;;;;;;;4.13;1.48;;;28.60;58.00;;;;;;5021683;28;20032;-84
2022/09/07 12:06:04;;;;;;;6.78;2.08;;;28.70;57.70;;;;;;5012457;28;20026;-84
2022/09/07 12:08:55;;;;;;;3.75;1.33;;;28.70;57.50;;;;;;5043104;28;20053;-83
2022/09/07 12:11:36;;;;;;;4.38;1.35;;;28.90;57.50;;;;;;5026488;28;20037;-84
2022/09/07 12:14:28;;;;;;;3.92;1.50;;;28.90;57.40;;;;;;5021061;28;20044;-82
2022/09/07 12:17:17;;;;;;;3.97;1.27;;;29.00;57.20;;;;;;5023031;28;20492;-82
2022/09/07 12:19:43;;;;;;;4.70;1.90;;;29.00;56.90;;;;;;5009705;28;20049;-87
2022/09/07 12:22:20;;;;;;;3.30;1.27;;;29.10;57.00;;;;;;5022544;28;20034;-85
2022/09/07 12:24:53;;;;;;;3.42;1.23;;;29.00;56.50;;;;;;5023509;28;20425;-84
2022/09/07 12:27:19;;;;;;;8.48;2.67;;;28.90;56.50;;;;;;5011085;28;20462;-85
2022/09/07 12:30:09;;;;;;;2.95;1.50;;;28.70;56.60;;;;;;5027962;28;20052;-83
2022/09/07 12:32:48;;;;;;;6.32;1.55;;;28.60;56.80;;;;;;4990276;28;20327;-83
2022/09/07 12:35:27;;;;;;;4.75;1.70;;;28.40;56.80;;;;;;5010747;28;20037;-83
2022/09/07 12:38:06;;;;;;;6.85;2.17;;;28.30;56.80;;;;;;4994377;28;20443;-83
2022/09/07 12:40:36;;;;;;;5.43;2.13;;;28.40;57.00;;;;;;5027498;28;20025;-83
2022/09/07 12:43:13;;;;;;;5.03;1.65;;;28.50;56.90;;;;;;5023041;28;20106;-82
2022/09/07 12:45:39;;;;;;;5.13;1.75;;;28.70;56.80;;;;;;5022541;28;20029;-82
2022/09/07 12:48:14;;;;;;;4.28;1.25;;;28.80;56.70;;;;;;5005216;28;20033;-82
2022/09/07 12:51:12;;;;;;;4.68;1.55;;;28.90;56.50;;;;;;5034304;28;20025;-84
2022/09/07 12:53:44;;;;;;;4.45;1.85;;;29.00;56.40;;;;;;5027696;28;20067;-80
2022/09/07 12:56:25;;;;;;;4.88;1.98;;;29.00;56.20;;;;;;5008764;28;20373;-79
2022/09/07 12:59:17;;;;;;;3.55;1.30;;;29.20;56.10;;;;;;5032274;28;20510;-84
2022/09/07 13:02:13;;;;;;;4.50;1.38;;;29.30;56.10;;;;;;5027449;28;21132;-83
2022/09/07 13:04:45;;;;;;;4.13;1.55;;;29.30;55.90;;;;;;5030019;28;20041;-83
2022/09/07 13:07:41;;;;;;;4.18;1.05;;;29.50;55.80;;;;;;5038140;28;20443;-82
2022/09/07 13:10:25;;;;;;;4.60;1.45;;;29.50;55.50;;;;;;5036630;28;20318;-81
2022/09/07 13:12:52;;;;;;;3.95;1.38;;;29.60;55.40;;;;;;5021415;28;20039;-82
2022/09/07 13:15:38;;;;;;;4.38;1.33;;;29.70;55.30;;;;;;5024178;28;20235;-83